Sainte-Agathe-Des-Monts, Canada
Current Conditions -  °F | °C
As of 9:00 AM on Monday 22 Dec 2014 (Local Time) from CYMX Reporting Station
Light Snow Light Snow  
Wind Chill:   Ceiling: 800
Heat Index: 16°   Visibility: 6mi
Dew Point: 12°   Wind: 7mph
Humidity: 86%   Direction: 40°NE
Pressure: 30.41"   Gusts: NA
Location:  46.03°N, 74.28°W
Report Text: CYMX 221400Z 04006KT 010V080 6SM -SN OVC008 M09/M11 A3041 RMK ST8 SLP305
Loading
Personal Weather Stations






























Interactive Weather Map New forecast layout! Learn more

10-Day Weather Forecast

Advertisements
Track Severe Weather on mobile